KASE/ASE METAR and TAF weather

Enter ICAO airport designator
Station Type Date Time Source
KASE METAR 2019/07/17 18:53 UTC NOAA

KASE 171853Z 35005KT 10SM BKN110 26/03 A3026 RMK AO2 SLP102 T02610028


Station Type Date Time Source
KASE Decoded METAR 2019/07/17 18:53 UTC NOAA

ASPEN-PITKIN COUNTY AIRPORT, CO, United States (KASE) 39-14N 106-52W 2354M
Jul 17, 2019 - 02:53 PM EDT / 2019.07.17 1853 UTC
Wind: from the N (350 degrees) at 6 MPH (5 KT):0
Visibility: 10 mile(s):0
Sky conditions: mostly cloudy
Temperature: 79.0 F (26.1 C)
Dew Point: 37.0 F (2.8 C)
Relative Humidity: 22%
Pressure (altimeter): 30.26 in. Hg (1024 hPa)
ob: KASE 171853Z 35005KT 10SM BKN110 26/03 A3026 RMK AO2 SLP102 T02610028
cycle: 19

Station Type Date Time Source
KASE TAF 2019/07/17 19:04 UTC NOAA

TAF
AMD KASE 171903Z 1719/1818 35005KT P6SM BKN110
FM172000 24014G25KT P6SM SCT100
FM180200 21008KT P6SM FEW100 FEW250
FM180500 19006KT P6SM SKC
FM181400 VRB04KT P6SM SKC

Example: see airport list